createdAt,value
2019-05-21T00:01:03.346Z,3.97
2019-05-21T00:03:31.849Z,4.20
2019-05-21T00:06:00.366Z,4.40
2019-05-21T00:08:28.864Z,3.90
2019-05-21T00:10:57.367Z,4.07
2019-05-21T00:13:25.873Z,4.03
2019-05-21T00:15:54.459Z,3.87
2019-05-21T00:18:23.319Z,3.40
2019-05-21T00:20:51.799Z,4.00
2019-05-21T00:23:20.292Z,3.80
2019-05-21T00:25:48.765Z,4.00
2019-05-21T00:28:41.115Z,3.40
2019-05-21T00:31:46.065Z,4.20
2019-05-21T00:34:50.947Z,4.43
2019-05-21T00:37:55.911Z,5.60
2019-05-21T00:41:00.802Z,5.10
2019-05-21T00:43:40.268Z,4.30
2019-05-21T00:46:08.764Z,4.10
2019-05-21T00:48:37.239Z,4.17
2019-05-21T00:51:05.736Z,4.83
2019-05-21T00:53:34.310Z,5.50
2019-05-21T00:56:02.843Z,5.97
2019-05-21T00:58:31.380Z,4.73
2019-05-21T01:00:59.865Z,4.37
2019-05-21T01:03:31.741Z,4.93
2019-05-21T01:06:00.297Z,4.93
2019-05-21T01:08:28.762Z,5.97
2019-05-21T01:10:57.271Z,4.40
2019-05-21T01:13:25.737Z,5.00
2019-05-21T01:15:54.496Z,5.00
2019-05-21T01:18:22.984Z,5.30
2019-05-21T01:20:51.443Z,4.77
2019-05-21T01:23:19.912Z,5.07
2019-05-21T01:25:48.416Z,4.27
2019-05-21T01:28:16.917Z,6.73
2019-05-21T01:30:45.387Z,5.67
2019-05-21T01:33:13.845Z,5.23
2019-05-21T01:35:42.664Z,5.53
2019-05-21T01:38:11.133Z,5.07
2019-05-21T01:40:39.626Z,5.30
2019-05-21T01:43:08.095Z,5.73
2019-05-21T01:45:36.559Z,5.23
2019-05-21T01:48:05.012Z,5.80
2019-05-21T01:50:33.742Z,5.50
2019-05-21T01:53:03.084Z,5.30
2019-05-21T01:55:31.707Z,6.90
2019-05-21T01:58:00.187Z,5.03
2019-05-21T02:00:28.704Z,5.17
2019-05-21T02:02:57.187Z,5.50
2019-05-21T02:05:33.059Z,6.03
2019-05-21T02:07:56.189Z,6.23
2019-05-21T02:10:24.670Z,6.10
2019-05-21T02:12:53.175Z,5.10
2019-05-21T02:15:21.933Z,5.90
2019-05-21T02:17:50.433Z,7.10
2019-05-21T02:20:18.925Z,5.83
2019-05-21T02:22:47.394Z,6.57
2019-05-21T02:25:15.870Z,5.87
2019-05-21T02:27:44.676Z,5.63
2019-05-21T02:30:13.534Z,6.73
2019-05-21T02:32:41.997Z,6.83
2019-05-21T02:35:10.698Z,6.33
2019-05-21T02:37:39.161Z,6.93
2019-05-21T02:40:07.631Z,5.97
2019-05-21T02:42:36.470Z,5.77
2019-05-21T02:45:05.233Z,6.57
2019-05-21T02:47:33.698Z,6.37
2019-05-21T02:50:02.207Z,6.17
2019-05-21T02:52:30.700Z,7.10
2019-05-21T02:54:59.222Z,7.17
2019-05-21T02:57:38.750Z,6.73
2019-05-21T03:00:09.002Z,5.50
2019-05-21T03:02:39.482Z,6.90
2019-05-21T03:05:07.953Z,6.37
2019-05-21T03:07:36.447Z,6.33
2019-05-21T03:10:05.200Z,6.57
2019-05-21T03:12:33.998Z,7.40
2019-05-21T03:15:02.782Z,8.47
2019-05-21T03:17:31.278Z,8.60
2019-05-21T03:20:00.050Z,8.77
2019-05-21T03:22:28.549Z,8.73
2019-05-21T03:25:01.840Z,6.43
2019-05-21T03:27:27.245Z,8.93
2019-05-21T03:29:55.710Z,8.20
2019-05-21T03:32:24.193Z,7.97
2019-05-21T03:34:52.658Z,6.83
2019-05-21T03:37:21.128Z,8.30
2019-05-21T03:39:49.594Z,9.03
2019-05-21T03:42:18.078Z,8.47
2019-05-21T03:44:59.080Z,6.80
2019-05-21T03:47:16.781Z,7.67
2019-05-21T03:49:45.261Z,7.43
2019-05-21T03:52:14.086Z,8.40
2019-05-21T03:54:42.893Z,8.10
2019-05-21T03:57:11.381Z,7.87
2019-05-21T03:59:39.935Z,8.50
2019-05-21T04:02:08.500Z,9.70
2019-05-21T04:04:36.970Z,7.67
2019-05-21T04:07:05.424Z,8.30
2019-05-21T04:09:33.922Z,10.03
2019-05-21T04:12:02.397Z,8.67
2019-05-21T04:14:33.601Z,10.13
2019-05-21T04:17:23.955Z,9.53
2019-05-21T04:19:52.599Z,8.40
2019-05-21T04:22:21.079Z,10.10
2019-05-21T04:24:49.565Z,9.67
2019-05-21T04:27:18.064Z,8.43
2019-05-21T04:29:46.561Z,10.33
2019-05-21T04:32:15.018Z,10.80
2019-05-21T04:34:43.498Z,9.47
2019-05-21T04:37:13.358Z,10.73
2019-05-21T04:39:42.678Z,10.37
2019-05-21T04:42:11.159Z,10.63
2019-05-21T04:44:39.650Z,9.33
2019-05-21T04:47:08.423Z,10.23
2019-05-21T04:49:36.905Z,10.27
2019-05-21T04:52:05.700Z,10.73
2019-05-21T04:54:34.182Z,11.77
2019-05-21T04:57:02.678Z,10.97
2019-05-21T04:59:31.290Z,11.03
2019-05-21T05:01:59.882Z,9.70
2019-05-21T05:04:28.360Z,11.23
2019-05-21T05:06:56.840Z,10.23
2019-05-21T05:09:25.330Z,12.23
2019-05-21T05:11:53.819Z,11.10
2019-05-21T05:14:22.297Z,11.57
2019-05-21T05:16:50.801Z,9.40
2019-05-21T05:19:19.688Z,13.20
2019-05-21T05:21:48.496Z,12.07
2019-05-21T05:24:16.973Z,10.47
2019-05-21T05:26:45.470Z,12.30
2019-05-21T05:29:14.223Z,11.70
2019-05-21T05:31:42.688Z,12.87
2019-05-21T05:34:11.522Z,11.47
2019-05-21T05:36:40.000Z,10.27
2019-05-21T05:39:08.764Z,12.30
2019-05-21T05:41:37.276Z,12.03
2019-05-21T05:44:05.759Z,12.80
2019-05-21T05:46:34.259Z,12.87
2019-05-21T05:49:08.612Z,12.87
2019-05-21T05:51:37.101Z,11.13
2019-05-21T05:54:07.720Z,13.33
2019-05-21T05:56:35.769Z,13.87
2019-05-21T05:59:04.287Z,11.50
2019-05-21T06:01:33.846Z,10.40
2019-05-21T06:04:02.391Z,12.73
2019-05-21T06:06:31.195Z,13.30
2019-05-21T06:08:59.710Z,13.63
2019-05-21T06:11:28.191Z,12.73
2019-05-21T06:13:56.692Z,13.97
2019-05-21T06:16:25.179Z,13.33
2019-05-21T06:18:53.891Z,11.90
2019-05-21T06:21:22.366Z,11.50
2019-05-21T06:23:50.849Z,12.83
2019-05-21T06:26:19.875Z,10.90
2019-05-21T06:28:48.941Z,14.30
2019-05-21T06:31:17.746Z,11.60
2019-05-21T06:33:46.217Z,14.97
2019-05-21T06:36:14.705Z,12.20
2019-05-21T06:38:43.183Z,15.17
2019-05-21T06:41:11.944Z,13.37
2019-05-21T06:43:40.411Z,14.80
2019-05-21T06:46:08.880Z,14.33
2019-05-21T06:48:37.343Z,14.23
2019-05-21T06:51:05.845Z,12.80
2019-05-21T06:53:34.302Z,12.53
2019-05-21T06:56:06.948Z,13.20
2019-05-21T06:58:32.991Z,12.50
2019-05-21T07:01:01.780Z,11.93
2019-05-21T07:03:30.271Z,12.77
2019-05-21T07:05:59.612Z,12.97
2019-05-21T07:08:34.798Z,14.00
2019-05-21T07:10:58.412Z,13.93
2019-05-21T07:13:30.533Z,14.23
2019-05-21T07:15:57.133Z,13.40
2019-05-21T07:18:25.631Z,14.77
2019-05-21T07:20:54.153Z,14.10
2019-05-21T07:23:22.647Z,14.13
2019-05-21T07:25:51.120Z,13.87
2019-05-21T07:28:19.619Z,15.53
2019-05-21T07:30:48.431Z,11.97
2019-05-21T07:33:16.936Z,15.80
2019-05-21T07:35:45.436Z,13.07
2019-05-21T07:38:13.984Z,14.00
2019-05-21T07:40:42.518Z,15.87
2019-05-21T07:43:11.015Z,14.33
2019-05-21T07:45:39.503Z,14.57
2019-05-21T07:48:07.986Z,13.57
2019-05-21T07:50:36.438Z,12.43
2019-05-21T07:53:04.917Z,13.60
2019-05-21T07:55:33.508Z,14.43
2019-05-21T07:58:01.988Z,17.97
2019-05-21T08:00:30.505Z,15.23
2019-05-21T08:02:58.983Z,14.40
2019-05-21T08:05:27.483Z,14.07
2019-05-21T08:07:56.285Z,15.77
2019-05-21T08:10:24.787Z,17.83
2019-05-21T08:12:53.292Z,16.47
2019-05-21T08:15:21.867Z,12.57
2019-05-21T08:17:50.332Z,15.97
2019-05-21T08:20:18.931Z,16.77
2019-05-21T08:22:47.447Z,14.97
2019-05-21T08:25:15.916Z,17.73
2019-05-21T08:27:44.727Z,17.93
2019-05-21T08:30:13.567Z,14.43
2019-05-21T08:32:42.027Z,15.17
2019-05-21T08:35:10.540Z,16.73
2019-05-21T08:37:39.009Z,16.03
2019-05-21T08:40:07.848Z,16.53
2019-05-21T08:42:36.378Z,16.93
2019-05-21T08:45:05.726Z,15.87
2019-05-21T08:47:34.413Z,16.40
2019-05-21T08:50:02.966Z,16.77
2019-05-21T08:52:31.468Z,13.03
2019-05-21T08:54:59.924Z,14.80
2019-05-21T08:57:28.398Z,15.83
2019-05-21T08:59:57.093Z,16.13
2019-05-21T09:02:26.142Z,15.93
2019-05-21T09:04:54.633Z,15.53
2019-05-21T09:07:23.138Z,12.53
2019-05-21T09:09:52.235Z,14.13
2019-05-21T09:12:20.790Z,13.37
2019-05-21T09:14:49.306Z,12.00
2019-05-21T09:17:17.799Z,13.60
2019-05-21T09:19:46.559Z,11.83
2019-05-21T09:22:15.024Z,13.27
2019-05-21T09:24:43.734Z,11.33
2019-05-21T09:27:12.208Z,13.10
2019-05-21T09:29:40.686Z,13.80
2019-05-21T09:32:09.618Z,13.63
2019-05-21T09:34:48.266Z,12.60
2019-05-21T09:37:19.292Z,11.87
2019-05-21T09:39:38.753Z,12.80
2019-05-21T09:42:07.503Z,11.43
2019-05-21T09:44:36.002Z,10.57
2019-05-21T09:47:04.731Z,11.40
2019-05-21T09:49:33.214Z,12.83
2019-05-21T09:52:01.695Z,13.33
2019-05-21T09:54:30.195Z,12.70
2019-05-21T09:56:58.677Z,14.50
2019-05-21T09:59:58.672Z,12.23
2019-05-21T10:02:29.518Z,14.97
2019-05-21T10:04:58.289Z,12.30
2019-05-21T10:07:39.338Z,14.00
2019-05-21T10:09:57.084Z,14.80
2019-05-21T10:12:25.521Z,16.80
2019-05-21T10:14:54.023Z,11.83
2019-05-21T10:17:22.581Z,16.07
2019-05-21T10:19:51.058Z,15.23
2019-05-21T10:22:19.807Z,15.37
2019-05-21T10:24:48.272Z,15.60
2019-05-21T10:27:17.116Z,16.50
2019-05-21T10:29:45.588Z,14.20
2019-05-21T10:32:14.072Z,15.73
2019-05-21T10:34:42.577Z,16.43
2019-05-21T10:37:11.059Z,16.60
2019-05-21T10:39:39.559Z,15.70
2019-05-21T10:42:08.061Z,17.37
2019-05-21T10:44:36.566Z,15.63
2019-05-21T10:47:05.090Z,17.50
2019-05-21T10:49:33.848Z,18.53
2019-05-21T10:52:02.364Z,16.73
2019-05-21T10:54:30.863Z,16.13
2019-05-21T10:56:59.352Z,16.43
2019-05-21T10:59:27.835Z,17.70
2019-05-21T11:02:09.729Z,15.27
2019-05-21T11:04:48.386Z,14.70
2019-05-21T11:07:18.130Z,14.43
2019-05-21T11:09:46.621Z,15.40
2019-05-21T11:12:15.301Z,15.73
2019-05-21T11:14:43.765Z,16.83
2019-05-21T11:17:12.755Z,15.83
2019-05-21T11:19:41.353Z,16.03
2019-05-21T11:22:09.923Z,15.40
2019-05-21T11:24:38.411Z,17.07
2019-05-21T11:27:06.922Z,14.17
2019-05-21T11:29:35.408Z,16.60
2019-05-21T11:32:03.909Z,16.17
2019-05-21T11:34:32.688Z,15.60
2019-05-21T11:37:01.556Z,16.97
2019-05-21T11:39:29.996Z,16.63
2019-05-21T11:41:58.491Z,15.73
2019-05-21T11:44:26.977Z,16.97
2019-05-21T11:46:55.463Z,15.77
2019-05-21T11:49:23.957Z,15.03
2019-05-21T11:51:52.764Z,16.03
2019-05-21T11:54:21.236Z,16.50
2019-05-21T11:56:49.720Z,14.70
2019-05-21T11:59:18.528Z,16.27
2019-05-21T12:01:47.309Z,15.20
2019-05-21T12:04:15.810Z,14.17
2019-05-21T12:06:44.570Z,14.40
2019-05-21T12:09:13.377Z,15.60
2019-05-21T12:11:42.086Z,15.27
2019-05-21T12:14:10.587Z,15.63
2019-05-21T12:16:39.358Z,14.87
2019-05-21T12:19:08.595Z,15.17
2019-05-21T12:21:37.273Z,17.03
2019-05-21T12:24:05.991Z,14.37
2019-05-21T12:26:34.493Z,16.50
2019-05-21T12:29:03.033Z,15.50
2019-05-21T12:31:31.609Z,14.20
2019-05-21T12:34:00.092Z,16.17
2019-05-21T12:36:28.586Z,16.43
2019-05-21T12:39:12.721Z,16.23
2019-05-21T12:41:27.267Z,19.07
2019-05-21T12:43:55.799Z,16.83
2019-05-21T12:46:24.281Z,15.27
2019-05-21T12:48:52.764Z,14.10
2019-05-21T12:51:21.247Z,15.67
2019-05-21T12:53:49.749Z,15.27
2019-05-21T12:56:18.554Z,15.03
2019-05-21T12:58:47.013Z,16.57
2019-05-21T13:01:15.487Z,16.67
2019-05-21T13:03:43.984Z,15.23
2019-05-21T13:06:12.480Z,15.77
2019-05-21T13:08:41.065Z,15.07
2019-05-21T13:11:09.526Z,14.67
2019-05-21T13:13:38.005Z,15.47
2019-05-21T13:16:06.510Z,14.03
2019-05-21T13:18:35.000Z,15.03
2019-05-21T13:21:03.527Z,17.97
2019-05-21T13:23:32.046Z,14.60
2019-05-21T13:26:00.507Z,16.10
2019-05-21T13:28:28.981Z,16.57
2019-05-21T13:30:57.553Z,17.90
2019-05-21T13:33:26.048Z,14.97
2019-05-21T13:35:54.540Z,14.47
2019-05-21T13:38:24.390Z,15.60
2019-05-21T13:40:53.179Z,16.67
2019-05-21T13:43:21.690Z,16.70
2019-05-21T13:45:50.163Z,15.87
2019-05-21T13:48:18.623Z,14.80
2019-05-21T13:50:47.125Z,19.27
2019-05-21T13:53:15.662Z,16.13
2019-05-21T13:55:44.585Z,15.67
2019-05-21T13:58:13.052Z,18.57
2019-05-21T14:00:49.012Z,18.17
2019-05-21T14:03:17.550Z,19.13
2019-05-21T14:05:46.550Z,19.13
2019-05-21T14:08:15.033Z,19.90
2019-05-21T14:10:43.806Z,19.40
2019-05-21T14:13:12.311Z,20.43
2019-05-21T14:15:40.802Z,19.17
2019-05-21T14:18:09.322Z,21.33
2019-05-21T14:20:37.780Z,16.90
2019-05-21T14:23:06.255Z,18.80
2019-05-21T14:25:34.985Z,16.73
2019-05-21T14:28:03.791Z,16.70
2019-05-21T14:30:32.274Z,16.73
2019-05-21T14:33:00.737Z,18.13
2019-05-21T14:35:29.257Z,19.30
2019-05-21T14:37:58.123Z,18.97
2019-05-21T14:40:31.536Z,16.83
2019-05-21T14:43:00.380Z,22.80
2019-05-21T14:45:29.928Z,20.77
2019-05-21T14:47:57.723Z,19.50
2019-05-21T14:50:26.219Z,20.10
2019-05-21T14:52:54.743Z,21.87
2019-05-21T14:55:23.242Z,21.67
2019-05-21T14:57:51.741Z,21.37
2019-05-21T15:00:24.751Z,21.83
2019-05-21T15:02:53.266Z,21.30
2019-05-21T15:05:21.755Z,22.30
2019-05-21T15:07:50.249Z,19.57
2019-05-21T15:10:18.767Z,18.80
2019-05-21T15:12:47.265Z,20.10
2019-05-21T15:15:15.800Z,18.57
2019-05-21T15:17:44.283Z,19.30
2019-05-21T15:20:19.544Z,17.20
2019-05-21T15:22:48.024Z,15.97
2019-05-21T15:25:16.514Z,16.67
2019-05-21T15:27:44.988Z,14.87
2019-05-21T15:30:13.810Z,14.43
2019-05-21T15:32:42.454Z,13.33
2019-05-21T15:35:10.976Z,11.93
2019-05-21T15:37:39.792Z,13.07
2019-05-21T15:40:08.575Z,12.73
2019-05-21T15:42:37.340Z,13.07
2019-05-21T15:45:05.897Z,12.90
2019-05-21T15:47:34.914Z,11.67
2019-05-21T15:50:03.411Z,10.10
2019-05-21T15:52:31.892Z,10.10
2019-05-21T15:55:00.375Z,8.83
2019-05-21T15:57:29.182Z,9.70
2019-05-21T15:59:57.957Z,11.17
2019-05-21T16:02:26.413Z,9.37
2019-05-21T16:04:54.956Z,10.03
2019-05-21T16:07:23.458Z,11.17
2019-05-21T16:09:51.932Z,9.37
2019-05-21T16:12:21.151Z,9.30
2019-05-21T16:14:49.981Z,9.30
2019-05-21T16:17:18.487Z,9.00
2019-05-21T16:19:46.981Z,8.23
2019-05-21T16:22:15.445Z,7.80
2019-05-21T16:24:43.931Z,8.60
2019-05-21T16:27:12.388Z,9.60
2019-05-21T16:29:40.874Z,8.70
2019-05-21T16:32:09.417Z,8.33
2019-05-21T16:34:37.945Z,8.93
2019-05-21T16:37:06.461Z,8.40
2019-05-21T16:39:35.134Z,8.50
2019-05-21T16:42:03.707Z,9.23
2019-05-21T16:44:32.211Z,8.30
2019-05-21T16:47:00.963Z,9.13
2019-05-21T16:49:29.440Z,8.80
2019-05-21T16:51:58.182Z,8.73
2019-05-21T16:54:26.735Z,9.97
2019-05-21T16:56:55.173Z,10.30
2019-05-21T16:59:23.910Z,9.80
2019-05-21T17:01:52.420Z,10.40
2019-05-21T17:04:21.219Z,10.43
2019-05-21T17:06:50.016Z,8.87
2019-05-21T17:09:18.500Z,11.23
2019-05-21T17:11:58.914Z,12.53
2019-05-21T17:14:17.181Z,12.40
2019-05-21T17:16:45.685Z,11.47
2019-05-21T17:19:14.208Z,12.20
2019-05-21T17:21:42.661Z,13.43
2019-05-21T17:24:11.225Z,15.33
2019-05-21T17:26:42.803Z,15.77
2019-05-21T17:29:09.939Z,15.20
2019-05-21T17:31:38.407Z,16.80
2019-05-21T17:34:07.206Z,14.43
2019-05-21T17:36:35.968Z,15.80
2019-05-21T17:39:05.958Z,15.57
2019-05-21T17:41:34.674Z,16.70
2019-05-21T17:44:03.148Z,18.97
2019-05-21T17:46:31.933Z,18.60
2019-05-21T17:49:00.450Z,15.50
2019-05-21T17:51:28.938Z,14.07
2019-05-21T17:53:57.425Z,16.33
2019-05-21T17:56:25.901Z,15.30
2019-05-21T17:58:54.401Z,16.40
2019-05-21T18:01:22.867Z,14.83
2019-05-21T18:03:51.601Z,15.77
2019-05-21T18:06:20.184Z,14.43
2019-05-21T18:08:48.737Z,13.80
2019-05-21T18:11:18.028Z,16.13
2019-05-21T18:13:48.050Z,15.57
2019-05-21T18:16:16.669Z,15.77
2019-05-21T18:18:45.408Z,17.80
2019-05-21T18:21:13.951Z,15.73
2019-05-21T18:23:42.431Z,14.53
2019-05-21T18:26:11.218Z,16.23
2019-05-21T18:28:40.077Z,16.93
2019-05-21T18:31:08.650Z,17.83
2019-05-21T18:33:37.105Z,17.83
2019-05-21T18:36:05.586Z,16.73
2019-05-21T18:38:34.120Z,17.50
2019-05-21T18:41:02.713Z,14.47
2019-05-21T18:43:31.194Z,15.23
2019-05-21T18:45:59.727Z,15.27
2019-05-21T18:48:28.475Z,14.30
2019-05-21T18:50:56.952Z,13.30
2019-05-21T18:53:25.448Z,12.20
2019-05-21T18:55:54.228Z,13.67
2019-05-21T18:58:25.178Z,12.23
2019-05-21T19:00:52.928Z,12.93
2019-05-21T19:03:25.143Z,14.07
2019-05-21T19:05:51.953Z,14.23
2019-05-21T19:08:20.739Z,15.17
2019-05-21T19:10:49.243Z,14.60
2019-05-21T19:13:18.100Z,15.73
2019-05-21T19:15:46.553Z,13.97
2019-05-21T19:18:15.356Z,15.37
2019-05-21T19:20:43.910Z,13.10
2019-05-21T19:23:12.862Z,15.13
2019-05-21T19:25:41.324Z,14.83
2019-05-21T19:28:09.836Z,14.20
2019-05-21T19:30:38.339Z,14.07
2019-05-21T19:33:06.936Z,13.17
2019-05-21T19:35:35.412Z,14.50
2019-05-21T19:38:03.896Z,14.57
2019-05-21T19:40:32.376Z,14.40
2019-05-21T19:43:00.885Z,14.67
2019-05-21T19:45:31.386Z,14.40
2019-05-21T19:47:59.656Z,13.50
2019-05-21T19:50:28.481Z,12.57
2019-05-21T19:52:57.071Z,11.90
2019-05-21T19:55:26.516Z,11.70
2019-05-21T19:57:55.319Z,12.43
2019-05-21T20:00:26.392Z,12.83
2019-05-21T20:02:54.872Z,12.90
2019-05-21T20:05:23.647Z,12.50
2019-05-21T20:07:52.211Z,11.57
2019-05-21T20:10:21.165Z,9.67
2019-05-21T20:12:49.676Z,12.23
2019-05-21T20:15:18.177Z,11.03
2019-05-21T20:17:50.805Z,11.17
2019-05-21T20:20:19.472Z,11.60
2019-05-21T20:22:48.201Z,14.37
2019-05-21T20:25:17.220Z,13.00
2019-05-21T20:27:45.711Z,11.27
2019-05-21T20:30:16.838Z,11.40
2019-05-21T20:32:46.335Z,11.47
2019-05-21T20:35:16.671Z,14.37
2019-05-21T20:37:46.801Z,12.70
2019-05-21T20:40:15.560Z,13.03
2019-05-21T20:42:44.612Z,12.17
2019-05-21T20:45:15.416Z,12.33
2019-05-21T20:47:45.105Z,12.30
2019-05-21T20:50:15.265Z,11.53
2019-05-21T20:52:43.807Z,13.33
2019-05-21T20:55:12.684Z,11.43
2019-05-21T20:57:41.159Z,11.57
2019-05-21T21:00:10.937Z,12.43
2019-05-21T21:02:40.545Z,12.63
2019-05-21T21:05:09.812Z,11.73
2019-05-21T21:07:39.398Z,10.67
2019-05-21T21:10:08.941Z,10.50
2019-05-21T21:12:38.407Z,9.97
2019-05-21T21:15:06.967Z,10.50
2019-05-21T21:17:35.925Z,10.93
2019-05-21T21:20:04.909Z,11.50
2019-05-21T21:22:33.436Z,12.17
2019-05-21T21:25:02.022Z,9.57
2019-05-21T21:27:30.549Z,10.27
2019-05-21T21:29:59.038Z,9.90
2019-05-21T21:32:27.574Z,9.93
2019-05-21T21:34:56.078Z,10.40
2019-05-21T21:37:25.006Z,11.33
2019-05-21T21:39:53.957Z,11.43
2019-05-21T21:42:22.520Z,11.17
2019-05-21T21:44:51.191Z,10.13
2019-05-21T21:47:20.339Z,11.00
2019-05-21T21:49:48.870Z,10.07
2019-05-21T21:52:18.138Z,11.57
2019-05-21T21:54:47.132Z,10.50
2019-05-21T21:57:15.608Z,11.70
2019-05-21T21:59:44.146Z,10.37
2019-05-21T22:02:19.969Z,12.10
2019-05-21T22:04:48.834Z,9.70
2019-05-21T22:07:17.656Z,10.93
2019-05-21T22:09:46.973Z,10.80
2019-05-21T22:12:17.465Z,9.00
2019-05-21T22:14:52.017Z,9.57
2019-05-21T22:17:19.365Z,10.33
2019-05-21T22:19:48.166Z,11.40
2019-05-21T22:22:17.118Z,9.20
2019-05-21T22:24:45.596Z,8.83
2019-05-21T22:27:14.426Z,9.60
2019-05-21T22:29:42.907Z,10.63
2019-05-21T22:32:11.388Z,10.43
2019-05-21T22:34:39.952Z,10.00
2019-05-21T22:37:11.911Z,8.90
2019-05-21T22:39:42.090Z,11.03
2019-05-21T22:42:10.967Z,10.93
2019-05-21T22:44:39.446Z,10.97
2019-05-21T22:47:08.347Z,10.07
2019-05-21T22:49:37.136Z,10.67
2019-05-21T22:52:05.697Z,10.10
2019-05-21T22:54:34.213Z,9.70
2019-05-21T22:57:02.686Z,9.80
2019-05-21T22:59:31.203Z,12.33
2019-05-21T23:02:01.601Z,10.60
2019-05-21T23:04:30.087Z,11.63
2019-05-21T23:06:58.589Z,11.17
2019-05-21T23:09:27.091Z,11.07
2019-05-21T23:11:55.596Z,12.17
2019-05-21T23:14:24.093Z,10.77
2019-05-21T23:16:52.557Z,12.93
2019-05-21T23:19:24.259Z,11.47
2019-05-21T23:21:52.557Z,11.50
2019-05-21T23:24:23.411Z,13.80
2019-05-21T23:26:52.448Z,10.67
2019-05-21T23:29:21.183Z,10.27
2019-05-21T23:31:49.902Z,11.63
2019-05-21T23:34:18.663Z,11.37
2019-05-21T23:36:49.063Z,10.63
2019-05-21T23:39:22.123Z,11.00
2019-05-21T23:41:51.095Z,12.30
2019-05-21T23:44:19.885Z,11.73
2019-05-21T23:46:48.374Z,10.50
2019-05-21T23:49:16.839Z,11.80
2019-05-21T23:51:45.344Z,11.27
2019-05-21T23:54:14.146Z,12.63
2019-05-21T23:56:42.665Z,11.03
2019-05-21T23:59:11.155Z,12.67
